Terminal Aerodrome Forecast
Issued by NWS

Home | Current Version | Previous Version | Text Only | Print | Product List | Glossary On
Versions: 1 2 3 4 5 6 7 8 9 10 11 12 13 14 15 16 17 18 19 20 21 22 23 24 25 26 27 28 29 30 31 32 33 34 35 36 37 38 39 40
000
FTUS43 KMKX 190907 AAA
TAFUES
TAF AMD
KUES 190907Z 1909/2006 09008KT P6SM SCT080 BKN200 WS020/12040KT
      TEMPO 1909/1912 BKN080
     FM191200 10011KT P6SM BKN140
     FM192000 09011G18KT 6SM -SHRA OVC040
     FM192100 09011G18KT 3SM -SHRA OVC015
     FM192300 07010KT 2SM -SHRA OVC008
     FM200200 04009KT 2SM -SHRA OVC003
     FM200400 01008KT 6SM -SHRA OVC003=

USA.gov is the U.S. government's official web portal to all federal, state and local government web resources and services.